Time;durP1;ratioP1;P1;durP2;ratioP2;P2;SDS_P1;SDS_P2;PMS_P1;PMS_P2;Temp;Humidity;BMP_temperature;BMP_pressure;BME280_temperature;BME280_humidity;BME280_pressure;Samples;Min_cycle;Max_cycle;Signal;HPM_P1;HPM_P2
2022/12/30 00:01:44;;;;;;;36.85;17.20;;;;;;;;;;5032005;28;20138;-71
2022/12/30 00:04:11;;;;;;;41.60;15.70;;;;;;;;;;5032537;28;20914;-70
2022/12/30 00:06:38;;;;;;;35.28;17.15;;;;;;;;;;5028929;28;20186;-71
2022/12/30 00:09:04;;;;;;;30.92;16.30;;;;;;;;;;5034155;28;20781;-71
2022/12/30 00:11:33;;;;;;;37.03;17.92;;;;;;;;;;5033403;28;20045;-70
2022/12/30 00:33:48;;;;;;;46.33;21.52;;;;;;;;;;5026458;28;20059;-72
2022/12/30 00:36:15;;;;;;;37.67;17.83;;;;;;;;;;5025235;28;21701;-68
2022/12/30 00:38:42;;;;;;;41.83;19.13;;;;;;;;;;5024840;28;20061;-70
2022/12/30 00:43:54;;;;;;;47.25;20.60;;;;;;;;;;5025224;28;20583;-70
2022/12/30 00:46:22;;;;;;;38.35;17.88;;;;;;;;;;5023258;28;20407;-68
2022/12/30 00:57:05;;;;;;;41.83;19.20;;;;;;;;;;5025265;28;20080;-71
2022/12/30 00:59:32;;;;;;;44.38;20.23;;;;;;;;;;5023881;28;20048;-71
2022/12/30 01:01:59;;;;;;;60.75;26.65;;;;;;;;;;5024836;28;20479;-71
2022/12/30 01:04:25;;;;;;;53.67;22.95;;;;;;;;;;5035773;28;20040;-70
2022/12/30 01:06:52;;;;;;;49.28;22.92;;;;;;;;;;5022532;28;20033;-71
2022/12/30 01:09:19;;;;;;;49.72;22.35;;;;;;;;;;5026773;28;20420;-70
2022/12/30 01:12:07;;;;;;;48.53;19.95;;;;;;;;;;5049257;28;20034;-72
2022/12/30 01:14:32;;;;;;;54.42;23.30;;;;;;;;;;5034190;28;20032;-70
2022/12/30 01:16:59;;;;;;;64.90;28.52;;;;;;;;;;5045566;28;20041;-71
2022/12/30 01:19:25;;;;;;;62.30;25.00;;;;;;;;;;5044185;28;21000;-72
2022/12/30 01:21:52;;;;;;;57.40;26.65;;;;;;;;;;5046232;28;20037;-71
2022/12/30 01:24:18;;;;;;;55.30;25.50;;;;;;;;;;5043355;28;20124;-73
2022/12/30 01:26:45;;;;;;;60.95;24.77;;;;;;;;;;5044805;28;20072;-72
2022/12/30 01:29:12;;;;;;;54.42;24.00;;;;;;;;;;5044216;28;20036;-72
2022/12/30 01:31:38;;;;;;;42.65;22.33;;;;;;;;;;5042780;28;20047;-72
2022/12/30 01:34:05;;;;;;;57.85;23.50;;;;;;;;;;5047073;28;20614;-72
2022/12/30 01:36:31;;;;;;;51.22;23.70;;;;;;;;;;5057224;28;20051;-72
2022/12/30 01:38:58;;;;;;;59.72;24.85;;;;;;;;;;5045217;28;20041;-72
2022/12/30 01:41:25;;;;;;;56.40;24.00;;;;;;;;;;5044183;28;21897;-70
2022/12/30 01:43:51;;;;;;;46.97;23.55;;;;;;;;;;5046013;28;20048;-71
2022/12/30 01:46:22;;;;;;;56.72;25.55;;;;;;;;;;5060977;28;20036;-71
2022/12/30 01:48:51;;;;;;;53.35;26.17;;;;;;;;;;5046103;28;20037;-70
2022/12/30 01:51:20;;;;;;;43.83;23.55;;;;;;;;;;5046721;28;20151;-71
2022/12/30 01:53:49;;;;;;;60.22;24.65;;;;;;;;;;5043409;28;20040;-70
2022/12/30 01:56:18;;;;;;;56.25;24.27;;;;;;;;;;5044806;28;20044;-71
2022/12/30 01:58:45;;;;;;;61.55;24.25;;;;;;;;;;5044633;28;20783;-72
2022/12/30 02:01:12;;;;;;;52.28;23.25;;;;;;;;;;5044580;28;20044;-71
2022/12/30 02:03:46;;;;;;;57.17;25.83;;;;;;;;;;5043876;28;20040;-70
2022/12/30 02:06:15;;;;;;;54.42;25.50;;;;;;;;;;5041044;28;20040;-70
2022/12/30 02:08:42;;;;;;;51.28;24.58;;;;;;;;;;5043167;28;20098;-70
2022/12/30 02:11:08;;;;;;;50.85;23.13;;;;;;;;;;5044909;28;20678;-71
2022/12/30 02:13:35;;;;;;;65.43;25.70;;;;;;;;;;5043189;28;20088;-71
2022/12/30 02:16:08;;;;;;;51.22;25.63;;;;;;;;;;5043485;28;20072;-72
2022/12/30 02:18:38;;;;;;;46.60;19.90;;;;;;;;;;5045086;28;20040;-70
2022/12/30 02:21:13;;;;;;;57.80;24.63;;;;;;;;;;5043699;28;20037;-71
2022/12/30 02:23:59;;;;;;;56.25;23.23;;;;;;;;;;5045911;28;20386;-71
2022/12/30 02:26:30;;;;;;;53.78;23.27;;;;;;;;;;5042110;28;20037;-71
2022/12/30 02:29:15;;;;;;;56.78;23.77;;;;;;;;;;5058843;28;20036;-70
2022/12/30 02:31:55;;;;;;;64.72;25.20;;;;;;;;;;5044175;28;20108;-72
2022/12/30 02:34:30;;;;;;;68.95;22.73;;;;;;;;;;5042257;28;20130;-72
2022/12/30 02:37:11;;;;;;;51.33;23.33;;;;;;;;;;5044792;28;20052;-71
2022/12/30 02:39:47;;;;;;;52.55;26.45;;;;;;;;;;5044335;28;20049;-71
2022/12/30 02:45:02;;;;;;;57.33;25.48;;;;;;;;;;5044732;28;20091;-71
2022/12/30 02:47:39;;;;;;;51.15;24.38;;;;;;;;;;5062695;28;20127;-71
2022/12/30 02:52:57;;;;;;;55.97;24.45;;;;;;;;;;5049553;28;20425;-72
2022/12/30 02:55:24;;;;;;;46.42;24.77;;;;;;;;;;5049120;28;20044;-72
2022/12/30 02:57:51;;;;;;;59.47;26.08;;;;;;;;;;5049142;28;20960;-71
2022/12/30 03:06:01;;;;;;;62.13;26.48;;;;;;;;;;5033946;28;20087;-70
2022/12/30 03:08:38;;;;;;;59.00;24.15;;;;;;;;;;5048387;28;20036;-69
2022/12/30 03:11:18;;;;;;;42.13;20.92;;;;;;;;;;5049179;28;20147;-69
2022/12/30 03:14:03;;;;;;;42.75;19.92;;;;;;;;;;5021574;28;20038;-70
2022/12/30 03:16:34;;;;;;;49.80;19.90;;;;;;;;;;5023672;28;20171;-68
2022/12/30 03:19:06;;;;;;;44.22;19.38;;;;;;;;;;5023631;28;20049;-69
2022/12/30 03:21:34;;;;;;;40.72;18.55;;;;;;;;;;5034695;28;20036;-69
2022/12/30 03:27:04;;;;;;;37.45;15.50;;;;;;;;;;5034714;28;20043;-69
2022/12/30 03:29:39;;;;;;;36.65;16.83;;;;;;;;;;5027567;28;20134;-70
2022/12/30 03:32:08;;;;;;;38.80;17.00;;;;;;;;;;5029657;28;20064;-69
2022/12/30 03:34:35;;;;;;;42.75;17.77;;;;;;;;;;5033206;28;20053;-71
2022/12/30 03:37:11;;;;;;;36.22;15.05;;;;;;;;;;5040320;28;20134;-71
2022/12/30 03:39:40;;;;;;;32.55;15.05;;;;;;;;;;5031640;28;20049;-71
2022/12/30 03:42:08;;;;;;;42.88;15.93;;;;;;;;;;5029780;28;20037;-72
2022/12/30 03:44:36;;;;;;;32.85;15.40;;;;;;;;;;5029687;28;20062;-71
2022/12/30 03:47:04;;;;;;;37.47;18.27;;;;;;;;;;5026466;28;20045;-72
2022/12/30 03:49:31;;;;;;;50.47;17.25;;;;;;;;;;5026077;28;20045;-71
2022/12/30 03:51:57;;;;;;;41.30;18.50;;;;;;;;;;5026392;28;20038;-71
2022/12/30 03:54:24;;;;;;;31.02;14.63;;;;;;;;;;5040725;28;20051;-70
2022/12/30 03:56:51;;;;;;;30.92;14.32;;;;;;;;;;5024984;28;20156;-70
2022/12/30 03:59:17;;;;;;;31.05;13.75;;;;;;;;;;5026802;28;20479;-70
2022/12/30 04:01:44;;;;;;;30.85;13.48;;;;;;;;;;5026926;28;20037;-70
2022/12/30 04:04:10;;;;;;;31.70;13.35;;;;;;;;;;5025403;28;20079;-70
2022/12/30 04:06:37;;;;;;;23.67;12.57;;;;;;;;;;5026953;28;20083;-69
2022/12/30 04:09:04;;;;;;;26.10;11.13;;;;;;;;;;5041877;28;20041;-71
2022/12/30 04:11:30;;;;;;;23.50;10.48;;;;;;;;;;5026429;28;20083;-71
2022/12/30 04:13:57;;;;;;;21.48;10.57;;;;;;;;;;5027159;28;20405;-70
2022/12/30 04:16:24;;;;;;;28.42;11.30;;;;;;;;;;5024704;28;20200;-72
2022/12/30 04:18:50;;;;;;;28.15;11.38;;;;;;;;;;5027370;28;20080;-71
2022/12/30 04:21:17;;;;;;;20.48;9.55;;;;;;;;;;5027083;28;20079;-71
2022/12/30 04:23:44;;;;;;;23.85;10.10;;;;;;;;;;5025342;28;20215;-71
2022/12/30 04:26:10;;;;;;;19.15;8.98;;;;;;;;;;5025690;28;20125;-71
2022/12/30 04:28:37;;;;;;;21.70;9.95;;;;;;;;;;5029056;28;20676;-72
2022/12/30 04:31:04;;;;;;;24.92;10.95;;;;;;;;;;5026125;28;20033;-72
2022/12/30 04:33:30;;;;;;;27.60;10.45;;;;;;;;;;5025137;28;20117;-71
2022/12/30 04:36:00;;;;;;;26.45;11.52;;;;;;;;;;5025889;28;20052;-72
2022/12/30 04:38:26;;;;;;;25.77;10.05;;;;;;;;;;5025880;28;20512;-71
2022/12/30 04:40:53;;;;;;;31.25;10.73;;;;;;;;;;5025624;28;20053;-70
2022/12/30 04:43:20;;;;;;;20.88;10.13;;;;;;;;;;5026726;28;20160;-71
2022/12/30 04:45:46;;;;;;;21.10;8.57;;;;;;;;;;5025085;28;20037;-70
2022/12/30 04:48:13;;;;;;;16.90;7.32;;;;;;;;;;5024262;28;20053;-69
2022/12/30 04:50:43;;;;;;;17.50;6.47;;;;;;;;;;5017805;28;20045;-70
2022/12/30 04:53:10;;;;;;;13.70;6.93;;;;;;;;;;5027420;28;20041;-71
2022/12/30 04:55:37;;;;;;;14.13;6.35;;;;;;;;;;5025375;28;20037;-71
2022/12/30 04:58:04;;;;;;;14.75;5.90;;;;;;;;;;5043600;28;20047;-69
2022/12/30 05:00:31;;;;;;;11.75;4.47;;;;;;;;;;5060763;28;20028;-70
2022/12/30 05:02:58;;;;;;;13.82;5.60;;;;;;;;;;5062091;28;20095;-70
2022/12/30 05:05:25;;;;;;;12.43;4.90;;;;;;;;;;5048676;28;20460;-69
2022/12/30 05:07:51;;;;;;;11.52;5.15;;;;;;;;;;5062186;28;20047;-69
2022/12/30 05:10:21;;;;;;;14.60;4.85;;;;;;;;;;5063269;28;20126;-70
2022/12/30 05:12:48;;;;;;;8.65;3.60;;;;;;;;;;5047081;28;20181;-70
2022/12/30 05:15:14;;;;;;;8.95;3.90;;;;;;;;;;5062798;28;20061;-71
2022/12/30 05:17:41;;;;;;;8.25;3.55;;;;;;;;;;5064378;28;20060;-70
2022/12/30 05:20:08;;;;;;;6.32;2.83;;;;;;;;;;5062980;28;20032;-70
2022/12/30 05:22:35;;;;;;;7.80;3.15;;;;;;;;;;5062359;28;20040;-71
2022/12/30 05:27:46;;;;;;;9.13;3.95;;;;;;;;;;5062123;28;20050;-70
2022/12/30 05:30:13;;;;;;;11.02;3.15;;;;;;;;;;5028217;28;20580;-71
2022/12/30 05:32:40;;;;;;;9.38;3.25;;;;;;;;;;5039695;28;20029;-70
2022/12/30 05:35:07;;;;;;;4.53;2.10;;;;;;;;;;5028179;28;20700;-69
2022/12/30 05:37:33;;;;;;;7.97;2.35;;;;;;;;;;5028350;28;20738;-71
2022/12/30 05:40:00;;;;;;;5.68;2.50;;;;;;;;;;5026339;28;20161;-70
2022/12/30 05:42:27;;;;;;;5.68;2.03;;;;;;;;;;5024417;28;20029;-69
2022/12/30 05:44:53;;;;;;;5.93;2.47;;;;;;;;;;5024133;28;20514;-70
2022/12/30 05:47:20;;;;;;;6.78;2.75;;;;;;;;;;5025900;28;20041;-70
2022/12/30 05:49:47;;;;;;;7.55;2.97;;;;;;;;;;5024315;28;20041;-70
2022/12/30 05:52:35;;;;;;;5.25;2.20;;;;;;;;;;5049472;28;20098;-69
2022/12/30 05:55:02;;;;;;;5.45;2.40;;;;;;;;;;5045835;28;20029;-69
2022/12/30 05:57:29;;;;;;;5.28;2.28;;;;;;;;;;5040638;28;20044;-70
2022/12/30 05:59:55;;;;;;;6.03;2.60;;;;;;;;;;5050798;28;20041;-70
2022/12/30 06:02:22;;;;;;;5.50;2.47;;;;;;;;;;5034675;28;20091;-70
2022/12/30 06:04:49;;;;;;;6.43;2.92;;;;;;;;;;5051022;28;21045;-70
2022/12/30 06:07:15;;;;;;;6.30;2.35;;;;;;;;;;5045258;28;20086;-70
2022/12/30 06:09:42;;;;;;;6.72;2.50;;;;;;;;;;5042005;28;20043;-71
2022/12/30 06:12:09;;;;;;;5.95;2.33;;;;;;;;;;5050932;28;20102;-71
2022/12/30 06:14:35;;;;;;;6.07;2.53;;;;;;;;;;5042897;28;20099;-70
2022/12/30 06:17:02;;;;;;;5.82;1.98;;;;;;;;;;5044877;28;20101;-70
2022/12/30 06:19:29;;;;;;;3.95;1.70;;;;;;;;;;5041646;28;20250;-70
2022/12/30 06:21:55;;;;;;;5.97;2.03;;;;;;;;;;5048361;28;20048;-71
2022/12/30 06:24:22;;;;;;;4.63;1.80;;;;;;;;;;5018192;28;20045;-69
2022/12/30 06:26:48;;;;;;;4.30;1.70;;;;;;;;;;5033856;28;20045;-70
2022/12/30 06:29:15;;;;;;;4.93;1.77;;;;;;;;;;5028149;28;20052;-71
2022/12/30 06:31:42;;;;;;;6.25;1.77;;;;;;;;;;5028190;28;20605;-71
2022/12/30 06:34:08;;;;;;;2.20;0.82;;;;;;;;;;5027374;28;20072;-71
2022/12/30 06:36:35;;;;;;;2.85;0.85;;;;;;;;;;5028335;28;20506;-70
2022/12/30 06:39:02;;;;;;;2.50;0.70;;;;;;;;;;5027115;28;20124;-70
2022/12/30 06:41:28;;;;;;;1.50;0.52;;;;;;;;;;5027882;28;20874;-70
2022/12/30 06:43:55;;;;;;;1.25;0.50;;;;;;;;;;5027283;28;20192;-71
2022/12/30 06:46:22;;;;;;;3.80;0.68;;;;;;;;;;5026828;28;20477;-71
2022/12/30 06:48:48;;;;;;;1.08;0.50;;;;;;;;;;5027417;28;21406;-71
2022/12/30 06:51:15;;;;;;;1.92;0.60;;;;;;;;;;5028391;28;20147;-70
2022/12/30 06:53:41;;;;;;;2.05;0.70;;;;;;;;;;5026486;28;20048;-70
2022/12/30 06:56:08;;;;;;;3.95;0.98;;;;;;;;;;5027465;28;20045;-70
2022/12/30 06:58:35;;;;;;;2.35;0.80;;;;;;;;;;5027858;28;20399;-70
2022/12/30 07:01:01;;;;;;;4.13;0.90;;;;;;;;;;5027751;28;20043;-70
2022/12/30 07:03:28;;;;;;;3.90;1.40;;;;;;;;;;5027117;28;20517;-69
2022/12/30 07:05:55;;;;;;;5.80;1.30;;;;;;;;;;5029007;28;20614;-69
2022/12/30 07:08:21;;;;;;;3.80;1.00;;;;;;;;;;5028168;28;20096;-69
2022/12/30 07:10:48;;;;;;;1.73;0.60;;;;;;;;;;5027776;28;20041;-69
2022/12/30 07:13:15;;;;;;;3.15;1.10;;;;;;;;;;5026524;28;20575;-70
2022/12/30 07:15:41;;;;;;;3.35;1.30;;;;;;;;;;5024881;28;20052;-69
2022/12/30 07:18:08;;;;;;;4.10;1.50;;;;;;;;;;5024589;28;20045;-69
2022/12/30 07:20:35;;;;;;;4.43;1.55;;;;;;;;;;5026262;28;21713;-69
2022/12/30 07:23:02;;;;;;;8.93;1.90;;;;;;;;;;5024778;28;20075;-70
2022/12/30 07:25:28;;;;;;;5.40;1.83;;;;;;;;;;5025321;28;20418;-69
2022/12/30 07:27:59;;;;;;;4.53;1.80;;;;;;;;;;5024279;28;20033;-70
2022/12/30 07:30:26;;;;;;;5.18;1.50;;;;;;;;;;5026218;28;20108;-68
2022/12/30 07:32:52;;;;;;;5.85;1.65;;;;;;;;;;5028258;28;20042;-70
2022/12/30 07:35:19;;;;;;;3.92;1.73;;;;;;;;;;5023956;28;20132;-69
2022/12/30 07:37:46;;;;;;;5.63;1.45;;;;;;;;;;5024744;28;20128;-69
2022/12/30 07:40:12;;;;;;;4.32;1.40;;;;;;;;;;5027529;28;20067;-69
2022/12/30 07:42:43;;;;;;;4.38;1.30;;;;;;;;;;5024547;28;20053;-69
2022/12/30 07:45:10;;;;;;;7.60;1.63;;;;;;;;;;5024452;28;20042;-69
2022/12/30 07:47:37;;;;;;;7.45;1.60;;;;;;;;;;5026668;28;20071;-69
2022/12/30 07:50:05;;;;;;;3.95;1.58;;;;;;;;;;5028569;28;20524;-69
2022/12/30 07:52:32;;;;;;;3.47;1.30;;;;;;;;;;5027074;28;20048;-70
2022/12/30 07:54:58;;;;;;;2.83;0.82;;;;;;;;;;5030036;28;20144;-69
2022/12/30 07:57:28;;;;;;;2.20;0.63;;;;;;;;;;5033166;28;20958;-70
2022/12/30 07:59:54;;;;;;;3.00;0.60;;;;;;;;;;5029243;28;20076;-71
2022/12/30 08:02:21;;;;;;;0.80;0.40;;;;;;;;;;5026989;28;20045;-70
2022/12/30 08:04:48;;;;;;;4.43;0.40;;;;;;;;;;5024208;28;20037;-70
2022/12/30 08:07:18;;;;;;;0.75;0.40;;;;;;;;;;5026773;28;20044;-70
2022/12/30 08:09:45;;;;;;;0.77;0.40;;;;;;;;;;5018934;28;20052;-69
2022/12/30 08:12:11;;;;;;;0.43;0.30;;;;;;;;;;5023917;28;20200;-69
2022/12/30 08:14:38;;;;;;;1.02;0.45;;;;;;;;;;5033251;28;20034;-70
2022/12/30 08:17:05;;;;;;;1.95;0.50;;;;;;;;;;5026517;28;20049;-70
2022/12/30 08:19:31;;;;;;;1.17;0.38;;;;;;;;;;5026903;28;20037;-71
2022/12/30 08:21:58;;;;;;;0.70;0.40;;;;;;;;;;5026866;28;20037;-70
2022/12/30 08:24:24;;;;;;;1.35;0.43;;;;;;;;;;5026088;28;20041;-71
2022/12/30 08:26:51;;;;;;;1.65;0.40;;;;;;;;;;5025635;28;20051;-71
2022/12/30 08:29:18;;;;;;;0.30;0.30;;;;;;;;;;5028150;28;20099;-71
2022/12/30 08:31:49;;;;;;;0.65;0.30;;;;;;;;;;5042194;28;20067;-71
2022/12/30 08:34:17;;;;;;;0.57;0.32;;;;;;;;;;5024635;28;20120;-71
2022/12/30 08:36:44;;;;;;;1.40;0.43;;;;;;;;;;5024541;28;20549;-71
2022/12/30 08:39:11;;;;;;;0.95;0.45;;;;;;;;;;5026465;28;20495;-71
2022/12/30 08:41:40;;;;;;;1.20;0.40;;;;;;;;;;5026505;28;20032;-72
2022/12/30 08:44:07;;;;;;;2.08;0.60;;;;;;;;;;5028182;28;20045;-72
2022/12/30 08:46:34;;;;;;;1.30;0.40;;;;;;;;;;5026191;28;20049;-71
2022/12/30 08:49:01;;;;;;;2.33;0.50;;;;;;;;;;5027453;28;20041;-71
2022/12/30 08:51:28;;;;;;;1.23;0.47;;;;;;;;;;5025850;28;20052;-71
2022/12/30 08:53:54;;;;;;;1.33;0.40;;;;;;;;;;5026143;28;21713;-71
2022/12/30 08:56:23;;;;;;;0.85;0.40;;;;;;;;;;5025350;28;20527;-70
2022/12/30 08:58:50;;;;;;;1.95;0.60;;;;;;;;;;5025936;28;20045;-70
2022/12/30 09:01:18;;;;;;;1.25;0.43;;;;;;;;;;5027228;28;20378;-70
2022/12/30 09:03:45;;;;;;;1.38;0.50;;;;;;;;;;5024748;28;20083;-70
2022/12/30 09:06:13;;;;;;;2.22;0.55;;;;;;;;;;5025471;28;20394;-69
2022/12/30 09:08:40;;;;;;;0.38;0.30;;;;;;;;;;5024387;28;20171;-71
2022/12/30 09:11:08;;;;;;;0.88;0.40;;;;;;;;;;5027631;28;20656;-70
2022/12/30 09:13:43;;;;;;;0.90;0.40;;;;;;;;;;5024248;28;20410;-70
2022/12/30 09:16:19;;;;;;;1.80;0.55;;;;;;;;;;5027461;28;20069;-70
2022/12/30 09:18:46;;;;;;;1.10;0.40;;;;;;;;;;5042285;28;20048;-71
2022/12/30 09:21:18;;;;;;;0.77;0.30;;;;;;;;;;5025786;28;20041;-71
2022/12/30 09:23:44;;;;;;;1.30;0.45;;;;;;;;;;5036469;28;21881;-71
2022/12/30 09:26:14;;;;;;;1.35;0.50;;;;;;;;;;5045350;28;20040;-70
2022/12/30 09:28:41;;;;;;;0.77;0.40;;;;;;;;;;5054919;28;20037;-71
2022/12/30 09:31:07;;;;;;;1.55;0.65;;;;;;;;;;5038125;28;20068;-70
2022/12/30 09:33:34;;;;;;;3.28;0.70;;;;;;;;;;5020382;28;20037;-71
2022/12/30 09:36:04;;;;;;;2.33;0.60;;;;;;;;;;5041284;28;20108;-71
2022/12/30 09:38:31;;;;;;;1.15;0.47;;;;;;;;;;5038680;28;20051;-71
2022/12/30 09:40:57;;;;;;;2.58;0.63;;;;;;;;;;5046487;28;20028;-70
2022/12/30 09:43:42;;;;;;;1.75;0.40;;;;;;;;;;5044625;28;20048;-71
2022/12/30 09:46:15;;;;;;;0.82;0.35;;;;;;;;;;5046452;28;20124;-70
2022/12/30 09:48:50;;;;;;;5.88;0.60;;;;;;;;;;5049340;28;20446;-70
2022/12/30 09:51:19;;;;;;;1.23;0.40;;;;;;;;;;5048900;28;20039;-69
2022/12/30 09:53:53;;;;;;;0.63;0.40;;;;;;;;;;5040008;28;20665;-71
2022/12/30 09:56:24;;;;;;;1.58;0.47;;;;;;;;;;5050908;28;20037;-71
2022/12/30 09:58:54;;;;;;;2.03;0.50;;;;;;;;;;5049083;28;20136;-71
2022/12/30 10:01:29;;;;;;;1.77;0.60;;;;;;;;;;5048051;28;20119;-71
2022/12/30 10:03:57;;;;;;;1.88;0.57;;;;;;;;;;5047117;28;20041;-70
2022/12/30 10:06:24;;;;;;;3.53;0.80;;;;;;;;;;5048669;28;20033;-71
2022/12/30 10:09:06;;;;;;;1.95;0.63;;;;;;;;;;5049215;28;20383;-71
2022/12/30 10:11:50;;;;;;;1.75;0.52;;;;;;;;;;5049625;28;20101;-72
2022/12/30 10:14:35;;;;;;;1.73;0.50;;;;;;;;;;5047225;28;20045;-73
2022/12/30 10:17:17;;;;;;;2.05;0.70;;;;;;;;;;5048655;28;20493;-72
2022/12/30 10:20:04;;;;;;;2.40;0.80;;;;;;;;;;5048731;28;20048;-71
2022/12/30 10:22:36;;;;;;;2.30;0.68;;;;;;;;;;5033278;28;20041;-71
2022/12/30 10:25:05;;;;;;;1.85;0.70;;;;;;;;;;5048670;28;20099;-70
2022/12/30 10:27:54;;;;;;;2.17;0.57;;;;;;;;;;5047934;28;20041;-70
2022/12/30 10:30:28;;;;;;;1.58;0.63;;;;;;;;;;5052395;28;20033;-72
2022/12/30 10:33:02;;;;;;;1.20;0.50;;;;;;;;;;5052468;28;20044;-72
2022/12/30 10:35:32;;;;;;;1.33;0.57;;;;;;;;;;5040717;28;20316;-70
2022/12/30 10:38:06;;;;;;;5.57;0.90;;;;;;;;;;5050737;28;20068;-70
2022/12/30 10:40:38;;;;;;;1.25;0.50;;;;;;;;;;5048375;28;20087;-69
2022/12/30 10:43:13;;;;;;;1.23;0.50;;;;;;;;;;5050330;28;20053;-70
2022/12/30 10:45:46;;;;;;;1.58;0.60;;;;;;;;;;5047570;28;20032;-70
2022/12/30 10:48:31;;;;;;;3.00;0.50;;;;;;;;;;5049604;28;20496;-70
2022/12/30 10:50:58;;;;;;;1.40;0.50;;;;;;;;;;5047097;28;20375;-68
2022/12/30 10:53:27;;;;;;;2.70;0.60;;;;;;;;;;5031834;28;20040;-70
2022/12/30 10:55:56;;;;;;;1.50;0.60;;;;;;;;;;5064662;28;20051;-70
2022/12/30 10:58:42;;;;;;;1.77;0.57;;;;;;;;;;5050292;28;20037;-69
2022/12/30 11:01:15;;;;;;;1.08;0.50;;;;;;;;;;5046626;28;20112;-70
2022/12/30 11:03:42;;;;;;;;;;;;;;;;;;5047620;28;20066;-69
2022/12/30 11:06:20;;;;;;;1.23;0.40;;;;;;;;;;5047503;28;20007;-69
2022/12/30 11:08:46;;;;;;;3.28;0.60;;;;;;;;;;5047017;28;20041;-68
2022/12/30 11:11:13;;;;;;;1.45;0.50;;;;;;;;;;5048089;28;20041;-70
2022/12/30 11:16:25;;;;;;;1.88;0.60;;;;;;;;;;5046679;28;20079;-69
2022/12/30 11:18:51;;;;;;;0.82;0.40;;;;;;;;;;5048602;28;20091;-70
2022/12/30 11:21:32;;;;;;;1.58;0.50;;;;;;;;;;5046369;28;20044;-71
2022/12/30 11:24:00;;;;;;;0.52;0.40;;;;;;;;;;5046365;28;20040;-70
2022/12/30 11:26:28;;;;;;;2.10;0.70;;;;;;;;;;5048326;28;20094;-70
2022/12/30 11:28:54;;;;;;;1.90;0.60;;;;;;;;;;5046451;28;20087;-70
2022/12/30 11:31:21;;;;;;;1.45;0.40;;;;;;;;;;5046476;28;20111;-70
2022/12/30 11:33:48;;;;;;;1.25;0.43;;;;;;;;;;5047265;28;20033;-71
2022/12/30 11:36:17;;;;;;;1.00;0.40;;;;;;;;;;5048112;28;20036;-71
2022/12/30 11:38:46;;;;;;;1.55;0.50;;;;;;;;;;5046417;28;20045;-71
2022/12/30 11:41:20;;;;;;;0.30;0.30;;;;;;;;;;5047444;28;20096;-71
2022/12/30 11:43:47;;;;;;;0.52;0.40;;;;;;;;;;5046643;28;20044;-71
2022/12/30 11:46:18;;;;;;;0.35;0.30;;;;;;;;;;5047435;28;20048;-70
2022/12/30 11:48:47;;;;;;;0.30;0.30;;;;;;;;;;5046055;28;20037;-70
2022/12/30 11:51:24;;;;;;;1.08;0.40;;;;;;;;;;5047082;28;20061;-70
2022/12/30 11:54:01;;;;;;;0.50;0.30;;;;;;;;;;5032909;28;20151;-71
2022/12/30 11:56:28;;;;;;;0.20;0.20;;;;;;;;;;5027680;28;20045;-69
2022/12/30 11:58:55;;;;;;;0.70;0.30;;;;;;;;;;5028336;28;20108;-71
2022/12/30 12:01:21;;;;;;;1.38;0.50;;;;;;;;;;5028211;28;20037;-70
2022/12/30 12:03:54;;;;;;;0.85;0.40;;;;;;;;;;5026803;28;20045;-70
2022/12/30 12:06:21;;;;;;;1.40;0.40;;;;;;;;;;5026761;28;20033;-70
2022/12/30 12:08:48;;;;;;;1.42;0.40;;;;;;;;;;5028052;28;20033;-70
2022/12/30 12:11:23;;;;;;;0.75;0.40;;;;;;;;;;5040337;28;20038;-72
2022/12/30 12:13:50;;;;;;;1.70;0.50;;;;;;;;;;5026790;28;20038;-72
2022/12/30 12:16:21;;;;;;;0.63;0.35;;;;;;;;;;5026469;28;20064;-73
2022/12/30 12:19:01;;;;;;;0.43;0.32;;;;;;;;;;5024172;28;20403;-71
2022/12/30 12:21:28;;;;;;;0.70;0.30;;;;;;;;;;5025497;28;20044;-71
2022/12/30 12:24:04;;;;;;;0.98;0.50;;;;;;;;;;5026659;28;20045;-72
2022/12/30 12:26:37;;;;;;;0.57;0.40;;;;;;;;;;5025773;28;20037;-70
2022/12/30 12:29:04;;;;;;;1.15;0.40;;;;;;;;;;5027001;28;20378;-71
2022/12/30 12:31:49;;;;;;;1.25;0.40;;;;;;;;;;5026513;28;20630;-70
2022/12/30 12:34:16;;;;;;;0.88;0.40;;;;;;;;;;5028266;28;20044;-71
2022/12/30 12:37:01;;;;;;;1.33;0.52;;;;;;;;;;5032415;28;20113;-70
2022/12/30 12:39:46;;;;;;;1.08;0.40;;;;;;;;;;5026207;28;20052;-70
2022/12/30 12:42:16;;;;;;;0.63;0.40;;;;;;;;;;5027115;28;20765;-70
2022/12/30 12:44:55;;;;;;;1.23;0.35;;;;;;;;;;5036104;28;20045;-70
2022/12/30 12:47:21;;;;;;;1.15;0.40;;;;;;;;;;5045049;28;20091;-71
2022/12/30 12:49:55;;;;;;;2.30;0.60;;;;;;;;;;5046028;28;20041;-70
2022/12/30 12:52:40;;;;;;;3.15;0.43;;;;;;;;;;5046704;28;20051;-71
2022/12/30 12:55:16;;;;;;;1.35;0.47;;;;;;;;;;5048668;28;20045;-71
2022/12/30 12:58:04;;;;;;;1.05;0.38;;;;;;;;;;5060819;28;20043;-71
2022/12/30 13:00:44;;;;;;;1.50;0.60;;;;;;;;;;5044245;28;20049;-72
2022/12/30 13:03:11;;;;;;;0.80;0.30;;;;;;;;;;5045950;28;20045;-71
2022/12/30 13:05:56;;;;;;;2.72;0.60;;;;;;;;;;5045226;28;20045;-71
2022/12/30 13:08:46;;;;;;;1.73;0.60;;;;;;;;;;5043582;28;20127;-71
2022/12/30 13:11:51;;;;;;;1.40;0.60;;;;;;;;;;5045514;28;20587;-71
2022/12/30 13:14:34;;;;;;;3.17;0.60;;;;;;;;;;5014890;28;20038;-71
2022/12/30 13:17:03;;;;;;;3.05;0.57;;;;;;;;;;5026327;28;20547;-73
2022/12/30 13:19:31;;;;;;;1.30;0.45;;;;;;;;;;5036026;28;20044;-65
2022/12/30 13:21:58;;;;;;;1.65;0.60;;;;;;;;;;5045790;28;20426;-70
2022/12/30 13:24:31;;;;;;;2.10;0.77;;;;;;;;;;5043447;28;20413;-72
2022/12/30 13:26:58;;;;;;;4.07;0.90;;;;;;;;;;5045980;28;20036;-70
2022/12/30 13:29:28;;;;;;;2.13;0.60;;;;;;;;;;5044113;28;20481;-70
2022/12/30 13:31:54;;;;;;;2.55;0.85;;;;;;;;;;5048732;28;20044;-69
2022/12/30 13:34:41;;;;;;;2.50;0.85;;;;;;;;;;5042362;28;20075;-70
2022/12/30 13:37:13;;;;;;;2.10;0.82;;;;;;;;;;5042748;28;20037;-70
2022/12/30 13:39:40;;;;;;;2.80;0.80;;;;;;;;;;5058408;28;20144;-70
2022/12/30 13:42:25;;;;;;;1.85;0.57;;;;;;;;;;5043688;28;20041;-69
2022/12/30 13:44:52;;;;;;;2.28;0.57;;;;;;;;;;5043422;28;20048;-70
2022/12/30 13:47:22;;;;;;;5.30;0.80;;;;;;;;;;5045108;28;20044;-70
2022/12/30 13:49:48;;;;;;;2.55;0.70;;;;;;;;;;5044492;28;20044;-68
2022/12/30 13:52:25;;;;;;;2.65;0.75;;;;;;;;;;5044765;28;20041;-69
2022/12/30 13:54:55;;;;;;;4.50;0.80;;;;;;;;;;5042863;28;20044;-69
2022/12/30 13:57:51;;;;;;;3.80;0.70;;;;;;;;;;5044142;28;20064;-69
2022/12/30 14:00:26;;;;;;;1.52;0.60;;;;;;;;;;5040951;28;20049;-70
2022/12/30 14:03:00;;;;;;;8.45;3.45;;;;;;;;;;5051997;28;20056;-67
2022/12/30 14:05:33;;;;;;;4.68;1.05;;;;;;;;;;5012473;28;20071;-70
2022/12/30 14:08:00;;;;;;;2.10;0.90;;;;;;;;;;5021156;28;20490;-70
2022/12/30 14:10:30;;;;;;;2.13;0.90;;;;;;;;;;5017448;28;20053;-69
2022/12/30 14:13:12;;;;;;;3.17;0.80;;;;;;;;;;5039201;28;20398;-68
2022/12/30 14:15:42;;;;;;;1.95;0.68;;;;;;;;;;5044396;28;20138;-71
2022/12/30 14:18:08;;;;;;;2.40;0.90;;;;;;;;;;5044569;28;20160;-69
2022/12/30 14:20:36;;;;;;;2.25;0.73;;;;;;;;;;5042769;28;20087;-70
2022/12/30 14:23:04;;;;;;;2.50;0.75;;;;;;;;;;5044153;28;20401;-70
2022/12/30 14:25:32;;;;;;;2.45;0.70;;;;;;;;;;5043760;28;20036;-69
2022/12/30 14:28:05;;;;;;;2.22;0.70;;;;;;;;;;5045339;28;20532;-70
2022/12/30 14:30:32;;;;;;;1.45;0.63;;;;;;;;;;5044004;28;20037;-70
2022/12/30 14:33:14;;;;;;;2.28;0.85;;;;;;;;;;5043897;28;20573;-70
2022/12/30 14:35:58;;;;;;;2.97;0.90;;;;;;;;;;5044696;28;20041;-70
2022/12/30 14:38:33;;;;;;;2.17;0.77;;;;;;;;;;5043803;28;20113;-69
2022/12/30 14:41:04;;;;;;;5.82;0.90;;;;;;;;;;5049071;28;20478;-69
2022/12/30 14:43:31;;;;;;;2.85;0.88;;;;;;;;;;5047027;28;20045;-70
2022/12/30 14:46:16;;;;;;;2.58;0.65;;;;;;;;;;5050448;28;20068;-70
2022/12/30 14:49:15;;;;;;;3.55;1.05;;;;;;;;;;5036585;28;20052;-70
2022/12/30 14:51:43;;;;;;;2.00;0.68;;;;;;;;;;5024204;28;20037;-70
2022/12/30 14:54:14;;;;;;;2.67;0.85;;;;;;;;;;5043362;28;20047;-70
2022/12/30 14:56:46;;;;;;;3.80;0.80;;;;;;;;;;5028303;28;20499;-70
2022/12/30 14:59:13;;;;;;;2.35;0.80;;;;;;;;;;5027796;28;20072;-71
2022/12/30 15:01:44;;;;;;;2.45;0.90;;;;;;;;;;5028050;28;20037;-70
2022/12/30 15:04:14;;;;;;;1.55;0.70;;;;;;;;;;5028799;28;20103;-70
2022/12/30 15:06:45;;;;;;;3.20;0.90;;;;;;;;;;5027070;28;20060;-70
2022/12/30 15:09:16;;;;;;;2.95;0.95;;;;;;;;;;5026508;28;20052;-70
2022/12/30 15:11:42;;;;;;;1.30;0.57;;;;;;;;;;5027014;28;20026;-71
2022/12/30 15:14:14;;;;;;;2.20;0.70;;;;;;;;;;5028014;28;20422;-70
2022/12/30 15:16:41;;;;;;;2.13;0.70;;;;;;;;;;5027544;28;20450;-69
2022/12/30 15:19:25;;;;;;;1.55;0.60;;;;;;;;;;5029940;28;20544;-70
2022/12/30 15:21:51;;;;;;;2.45;0.70;;;;;;;;;;5041872;28;20490;-70
2022/12/30 15:24:19;;;;;;;1.85;0.70;;;;;;;;;;5025326;28;20044;-70
2022/12/30 15:26:46;;;;;;;2.28;0.73;;;;;;;;;;5029019;28;20040;-70
2022/12/30 15:29:20;;;;;;;2.55;0.90;;;;;;;;;;5043571;28;20042;-70
2022/12/30 15:31:51;;;;;;;2.10;0.80;;;;;;;;;;5027991;28;20041;-70
2022/12/30 15:34:19;;;;;;;1.42;0.60;;;;;;;;;;5025944;28;20063;-70
2022/12/30 15:36:46;;;;;;;2.75;0.80;;;;;;;;;;5024181;28;20037;-69
2022/12/30 15:39:16;;;;;;;1.33;0.50;;;;;;;;;;5026989;28;20048;-69
2022/12/30 15:41:43;;;;;;;1.80;0.70;;;;;;;;;;5027678;28;20045;-69
2022/12/30 15:44:14;;;;;;;2.65;0.80;;;;;;;;;;5026301;28;20060;-69